Time;durP1;ratioP1;P1;durP2;ratioP2;P2;SDS_P1;SDS_P2;PMS_P1;PMS_P2;Temp;Humidity;BMP_temperature;BMP_pressure;BME280_temperature;BME280_humidity;BME280_pressure;Samples;Min_cycle;Max_cycle;Signal;HPM_P1;HPM_P2
2023/03/30 00:02:21;;;;;;;13.38;9.38;;;;;;;-148.88;100.00;75480.69;5054699;28;20029;-83
2023/03/30 00:04:47;;;;;;;12.98;9.35;;;;;;;-148.88;100.00;75464.44;5037545;28;20021;-83
2023/03/30 00:07:13;;;;;;;13.25;6.10;;;;;;;-148.88;100.00;75444.13;5038156;28;20031;-83
2023/03/30 00:09:42;;;;;;;16.85;9.68;;;;;;;-148.88;100.00;75431.94;5036856;28;20025;-83
2023/03/30 00:12:08;;;;;;;13.35;8.15;;;;;;;-148.88;100.00;75403.50;5054120;28;20025;-83
2023/03/30 00:14:36;;;;;;;15.93;8.85;;;;;;;-148.88;100.00;75393.34;5037030;28;20116;-83
2023/03/30 00:17:03;;;;;;;14.90;9.70;;;;;;;-148.88;100.00;75383.19;5037353;28;20021;-83
2023/03/30 00:19:28;;;;;;;11.85;4.95;;;;;;;-148.88;100.00;75385.22;5054890;28;20483;-83
2023/03/30 00:21:54;;;;;;;18.38;9.15;;;;;;;-148.88;100.00;75383.19;5036317;28;20040;-83
2023/03/30 00:24:19;;;;;;;15.35;6.65;;;;;;;-148.88;100.00;75387.25;5036600;28;20075;-83
2023/03/30 00:26:45;;;;;;;11.55;7.18;;;;;;;-148.88;100.00;75385.22;5037389;28;20116;-81
2023/03/30 00:29:10;;;;;;;9.70;5.72;;;;;;;-148.88;100.00;75391.31;5037519;28;20032;-83
2023/03/30 00:31:36;;;;;;;9.40;3.90;;;;;;;-148.88;100.00;75401.47;5055366;28;20029;-83
2023/03/30 00:34:01;;;;;;;10.13;5.88;;;;;;;-148.88;100.00;75405.53;5052884;28;20552;-83
2023/03/30 00:36:26;;;;;;;8.73;6.30;;;;;;;-148.88;100.00;75399.44;5036822;28;20028;-82
2023/03/30 00:38:52;;;;;;;9.60;3.63;;;;;;;-148.88;100.00;75395.38;5036239;28;20025;-84
2023/03/30 00:41:17;;;;;;;9.35;5.65;;;;;;;-148.88;100.00;75391.31;5036487;28;20491;-83
2023/03/30 00:43:57;;;;;;;9.00;5.72;;;;;;;-148.88;100.00;75379.13;5035971;28;20033;-84
2023/03/30 00:46:22;;;;;;;9.18;5.35;;;;;;;-148.88;100.00;75362.88;5035100;28;20383;-83
2023/03/30 00:48:48;;;;;;;8.02;4.68;;;;;;;-148.88;100.00;75366.94;5053004;28;20024;-82
2023/03/30 00:51:14;;;;;;;8.13;4.55;;;;;;;-148.88;100.00;75354.75;5035390;28;20028;-83
2023/03/30 00:53:42;;;;;;;9.20;4.60;;;;;;;-148.88;100.00;75340.53;5035401;28;20084;-82
2023/03/30 00:56:12;;;;;;;7.30;4.00;;;;;;;-148.88;100.00;75326.31;5035734;28;20115;-82
2023/03/30 00:58:38;;;;;;;7.38;4.45;;;;;;;-148.88;100.00;75334.44;5035836;28;20021;-83
2023/03/30 01:01:09;;;;;;;7.63;3.97;;;;;;;-148.88;100.00;75332.41;5053536;28;20483;-83
2023/03/30 01:03:49;;;;;;;8.18;4.28;;;;;;;-148.88;100.00;75322.25;5056610;28;20086;-82
2023/03/30 01:06:20;;;;;;;6.85;4.53;;;;;;;-148.88;100.00;75326.31;5057648;28;20036;-83
2023/03/30 01:08:46;;;;;;;7.18;3.25;;;;;;;-148.88;100.00;75310.06;5057608;28;20035;-83
2023/03/30 01:11:12;;;;;;;7.50;4.47;;;;;;;-148.88;100.00;75301.94;5039690;28;20033;-83
2023/03/30 01:13:43;;;;;;;7.95;5.07;;;;;;;-148.88;100.00;75291.78;5057552;28;20029;-83
2023/03/30 01:16:26;;;;;;;8.90;5.28;;;;;;;-148.88;100.00;75289.75;5057779;28;20509;-83
2023/03/30 01:19:00;;;;;;;8.75;5.75;;;;;;;-148.88;100.00;75273.53;5040967;28;20025;-83
2023/03/30 01:21:58;;;;;;;13.40;6.18;;;;;;;-148.88;100.00;75265.41;5039221;28;20036;-81
2023/03/30 01:24:52;;;;;;;9.95;5.38;;;;;;;-148.88;100.00;75265.41;5039330;28;20378;-83
2023/03/30 01:27:48;;;;;;;10.82;5.82;;;;;;;-148.88;100.00;75245.09;5039288;28;20124;-83
2023/03/30 01:30:44;;;;;;;10.25;5.13;;;;;;;-148.88;100.00;75220.72;5039109;28;20025;-82
2023/03/30 01:33:48;;;;;;;6.75;4.28;;;;;;;-148.88;100.00;75216.66;5039161;28;20394;-83
2023/03/30 01:36:54;;;;;;;8.50;3.45;;;;;;;-148.88;100.00;75196.34;4995407;28;20026;-83
2023/03/30 01:39:35;;;;;;;10.45;4.80;;;;;;;-148.88;100.00;75171.97;4996349;28;20033;-83
2023/03/30 01:42:28;;;;;;;7.22;4.13;;;;;;;-148.88;100.00;75161.81;5029893;28;20036;-83
2023/03/30 01:45:15;;;;;;;6.90;4.30;;;;;;;-148.88;100.00;75143.53;5038843;28;20116;-83
2023/03/30 01:47:48;;;;;;;7.03;3.95;;;;;;;-148.88;100.00;75133.38;5039096;28;20029;-83
2023/03/30 01:50:33;;;;;;;7.80;3.95;;;;;;;-148.88;100.00;75115.09;5039032;28;20391;-83
2023/03/30 01:53:24;;;;;;;6.85;3.85;;;;;;;-148.88;98.52;75066.38;5038956;28;20040;-84
2023/03/30 01:55:55;;;;;;;8.38;3.88;;;;;;;-148.88;98.96;75062.31;5056207;28;20104;-82
2023/03/30 01:58:30;;;;;;;5.40;3.53;;;;;;;-148.88;99.16;75070.44;5038130;28;20035;-83
2023/03/30 02:00:57;;;;;;;6.22;3.17;;;;;;;-148.88;98.67;75074.50;5055994;28;20055;-83
2023/03/30 02:03:31;;;;;;;6.82;3.47;;;;;;;-148.88;97.95;75070.44;5038075;28;20025;-82
2023/03/30 02:06:05;;;;;;;8.73;3.50;;;;;;;-148.88;97.23;75058.25;5038309;28;20119;-83
2023/03/30 02:08:33;;;;;;;6.15;3.30;;;;;;;-148.88;97.48;75054.19;5056468;28;20029;-83
2023/03/30 02:10:59;;;;;;;6.00;2.88;;;;;;;-148.88;96.00;75044.03;5038545;28;20214;-83
2023/03/30 02:13:30;;;;;;;7.80;3.58;;;;;;;-148.88;96.13;75050.13;5055497;28;20554;-84
2023/03/30 02:16:01;;;;;;;6.43;3.47;;;;;;;-148.88;94.39;75027.78;5056820;28;20027;-82
2023/03/30 02:18:26;;;;;;;6.53;3.00;;;;;;;-148.88;91.15;75005.44;5038153;28;20498;-84
2023/03/30 02:20:55;;;;;;;6.20;2.97;;;;;;;-148.88;91.72;75001.38;5038309;28;20033;-83
2023/03/30 02:23:24;;;;;;;6.10;3.28;;;;;;;-148.88;91.68;75003.41;5038312;28;20029;-83
2023/03/30 02:25:49;;;;;;;7.72;2.50;;;;;;;-148.88;91.85;75009.50;5056803;28;20035;-83
2023/03/30 02:28:15;;;;;;;5.53;2.80;;;;;;;-148.88;91.57;75011.53;5038585;28;20124;-84
2023/03/30 02:30:43;;;;;;;7.45;3.00;;;;;;;-148.88;91.31;75009.50;5055901;28;20016;-84
2023/03/30 02:33:21;;;;;;;5.70;2.78;;;;;;;-148.88;90.11;74997.31;5056111;28;20399;-83
2023/03/30 02:36:26;;;;;;;9.48;3.15;;;;;;;-148.88;89.63;74995.28;5055635;28;20063;-83
2023/03/30 02:38:51;;;;;;;;;;;;;;;-148.88;88.70;74968.88;5038077;28;20028;-83
2023/03/30 02:41:30;;;;;;;5.75;2.75;;;;;;;-148.88;88.34;74977.00;5055941;28;20341;-84
2023/03/30 02:44:25;;;;;;;6.72;2.70;;;;;;;-148.88;88.75;74981.06;5038589;28;20063;-83
2023/03/30 02:47:08;;;;;;;6.85;2.88;;;;;;;-148.88;88.92;74968.88;5055297;28;20368;-83
2023/03/30 02:49:45;;;;;;;6.55;3.05;;;;;;;-148.88;88.33;74946.53;5038993;28;20116;-84
2023/03/30 02:52:38;;;;;;;7.07;3.35;;;;;;;-148.88;87.58;74956.69;5056055;28;20039;-85
2023/03/30 02:55:33;;;;;;;5.45;3.25;;;;;;;-148.88;86.68;74962.78;5056287;28;20017;-83
2023/03/30 02:58:06;;;;;;;5.50;2.97;;;;;;;-148.88;86.66;74944.53;5023196;28;20037;-83
2023/03/30 03:00:43;;;;;;;6.63;3.73;;;;;;;-148.88;87.00;74948.56;5039266;28;20100;-83
2023/03/30 03:03:32;;;;;;;6.28;3.50;;;;;;;-148.88;86.86;74956.69;5039365;28;20269;-83
2023/03/30 03:06:01;;;;;;;7.53;4.00;;;;;;;-148.88;87.76;74964.81;5038413;28;20071;-83
2023/03/30 03:08:33;;;;;;;10.25;4.30;;;;;;;-148.88;87.94;74972.94;5057107;28;20475;-83
2023/03/30 03:10:59;;;;;;;10.93;4.80;;;;;;;-148.88;87.39;74964.81;5057866;28;20029;-83
2023/03/30 03:13:24;;;;;;;9.43;5.30;;;;;;;-148.88;87.41;74966.84;5038093;28;20032;-83
2023/03/30 03:15:54;;;;;;;13.02;6.72;;;;;;;-148.88;87.21;74966.84;5039684;28;20111;-83
2023/03/30 03:18:20;;;;;;;12.38;6.90;;;;;;;-148.88;87.53;74964.81;5041503;28;20040;-83
2023/03/30 03:20:46;;;;;;;13.60;7.88;;;;;;;-148.88;87.75;74972.94;5057709;28;20052;-83
2023/03/30 03:23:12;;;;;;;16.88;10.18;;;;;;;-148.88;87.04;74968.88;5056749;28;20024;-83
2023/03/30 03:25:37;;;;;;;23.20;13.00;;;;;;;-148.88;86.84;74960.75;5052585;28;20530;-85
2023/03/30 03:28:02;;;;;;;21.50;12.45;;;;;;;-148.88;86.75;74956.69;5037424;28;20104;-84
2023/03/30 03:30:28;;;;;;;24.88;14.55;;;;;;;-148.88;86.52;74952.63;5037560;28;20025;-84
2023/03/30 03:32:53;;;;;;;24.23;14.00;;;;;;;-148.88;85.79;74938.44;5039834;28;20391;-84
2023/03/30 03:35:18;;;;;;;22.63;13.23;;;;;;;-148.88;85.49;74932.34;5039353;28;20021;-85
2023/03/30 03:37:44;;;;;;;21.58;13.35;;;;;;;-148.88;84.75;74912.03;5057496;28;20029;-84
2023/03/30 03:40:10;;;;;;;21.30;12.80;;;;;;;-148.88;85.32;74905.94;5039276;28;20025;-83
2023/03/30 03:42:35;;;;;;;17.58;10.40;;;;;;;-148.88;85.79;74903.91;5039152;28;20029;-83
2023/03/30 03:45:01;;;;;;;17.30;9.95;;;;;;;-148.88;86.02;74907.97;5056675;28;20021;-83
2023/03/30 03:47:26;;;;;;;16.55;8.98;;;;;;;-148.88;84.66;74881.56;5038428;28;20120;-83
2023/03/30 03:49:51;;;;;;;15.40;9.05;;;;;;;-148.88;84.63;74875.47;5055876;28;20032;-85
2023/03/30 03:52:17;;;;;;;15.13;8.50;;;;;;;-148.88;84.40;74867.34;5036311;28;20050;-85
2023/03/30 03:54:42;;;;;;;16.08;9.25;;;;;;;-148.88;83.18;74851.09;5056040;28;20024;-84
2023/03/30 03:57:07;;;;;;;14.32;8.98;;;;;;;-148.88;83.35;74855.16;5053940;28;20515;-85
2023/03/30 03:59:33;;;;;;;13.77;8.38;;;;;;;-148.88;84.05;74861.25;5054763;28;20016;-85
2023/03/30 04:02:01;;;;;;;13.60;8.68;;;;;;;-148.88;84.26;74869.38;5037756;28;20071;-84
2023/03/30 04:04:26;;;;;;;17.33;9.18;;;;;;;-148.88;85.57;74883.59;5054012;28;20025;-84
2023/03/30 04:06:52;;;;;;;14.02;8.50;;;;;;;-148.88;85.15;74891.72;5053970;28;20033;-84
2023/03/30 04:09:18;;;;;;;13.52;8.15;;;;;;;-148.88;85.89;74907.97;5053925;28;20025;-85
2023/03/30 04:11:43;;;;;;;12.77;7.85;;;;;;;-148.88;85.29;74889.69;5036112;28;20029;-83
2023/03/30 04:14:09;;;;;;;16.58;8.15;;;;;;;-148.88;85.99;74914.06;5053863;28;20048;-84
2023/03/30 04:16:34;;;;;;;11.73;7.35;;;;;;;-148.88;86.77;74918.13;5054576;28;20025;-85
2023/03/30 04:18:59;;;;;;;11.90;7.63;;;;;;;-148.88;86.62;74924.22;5053717;28;20032;-85
2023/03/30 04:21:28;;;;;;;12.55;7.40;;;;;;;-148.88;87.58;74934.38;5053573;28;20040;-85
2023/03/30 04:23:54;;;;;;;11.93;7.10;;;;;;;-148.88;88.33;74944.53;5035484;28;20487;-84
2023/03/30 04:26:19;;;;;;;12.63;7.03;;;;;;;-148.88;87.46;74938.44;5036096;28;20028;-83
2023/03/30 04:28:45;;;;;;;9.55;6.22;;;;;;;-148.88;88.13;74944.53;5035924;28;20204;-84
2023/03/30 04:31:11;;;;;;;12.75;6.38;;;;;;;-148.88;88.16;74936.41;5035779;28;20017;-83
2023/03/30 04:33:43;;;;;;;12.93;6.05;;;;;;;-148.88;88.26;74948.56;5035551;28;20028;-84
2023/03/30 04:36:16;;;;;;;11.13;5.90;;;;;;;-148.88;88.37;74952.63;5053150;28;20031;-84
2023/03/30 04:38:43;;;;;;;10.77;6.03;;;;;;;-148.88;88.17;74944.53;5036441;28;20475;-83
2023/03/30 04:41:12;;;;;;;10.90;5.25;;;;;;;-148.88;88.37;74952.63;5037148;28;20039;-82
2023/03/30 04:43:39;;;;;;;8.68;5.13;;;;;;;-148.88;87.72;74948.56;5036397;28;20037;-83
2023/03/30 04:46:04;;;;;;;10.10;5.10;;;;;;;-148.88;87.99;74944.53;5054431;28;20032;-85
2023/03/30 04:48:30;;;;;;;12.82;5.20;;;;;;;-148.88;88.07;74940.47;5035879;28;20029;-84
2023/03/30 04:50:55;;;;;;;8.05;4.70;;;;;;;-148.88;88.07;74932.34;5053173;28;20025;-84
2023/03/30 04:53:21;;;;;;;8.80;4.68;;;;;;;-148.88;87.84;74936.41;5035604;28;20068;-85
2023/03/30 04:55:58;;;;;;;9.70;4.13;;;;;;;-148.88;87.45;74924.22;5035655;28;20024;-84
2023/03/30 04:58:24;;;;;;;10.20;4.35;;;;;;;-148.88;87.19;74932.34;5037063;28;20025;-85
2023/03/30 05:00:49;;;;;;;9.50;4.28;;;;;;;-148.88;88.02;74936.41;5035945;28;20031;-83
2023/03/30 05:03:14;;;;;;;6.15;3.22;;;;;;;-148.88;87.57;74934.38;5054158;28;20028;-84
2023/03/30 05:05:40;;;;;;;9.40;3.85;;;;;;;-148.88;87.22;74930.31;5054467;28;20050;-83
2023/03/30 05:08:06;;;;;;;11.23;3.83;;;;;;;-148.88;87.66;74932.34;5021365;28;20028;-82
2023/03/30 05:10:31;;;;;;;6.90;3.30;;;;;;;-148.88;86.79;74926.25;5037496;28;20554;-83
2023/03/30 05:12:56;;;;;;;10.50;3.72;;;;;;;-148.88;86.74;74918.13;5036121;28;20071;-84
2023/03/30 05:15:22;;;;;;;7.07;3.28;;;;;;;-148.88;85.88;74912.03;5053709;28;20025;-83
2023/03/30 05:17:47;;;;;;;9.50;3.10;;;;;;;-148.88;85.05;74875.47;5052927;28;20391;-83
2023/03/30 05:20:13;;;;;;;9.40;3.45;;;;;;;-148.88;83.11;74845.00;5053926;28;20475;-82
2023/03/30 05:25:06;;;;;;;7.40;2.50;;;;;;;-148.88;81.72;74810.50;5254829;22;20495;-81
2023/03/30 05:27:32;;;;;;;9.00;3.00;;;;;;;-148.88;82.27;74818.59;5079223;28;20040;-81
2023/03/30 05:29:57;;;;;;;7.40;2.60;;;;;;;-148.88;82.03;74810.50;5080117;28;20074;-81
2023/03/30 05:32:23;;;;;;;9.30;2.78;;;;;;;-148.88;82.48;74818.59;5064365;28;20045;-82
2023/03/30 05:34:48;;;;;;;5.68;2.50;;;;;;;-148.88;82.52;74812.53;5080153;28;20391;-82
2023/03/30 05:37:13;;;;;;;7.63;2.85;;;;;;;-148.88;82.79;74802.38;5079282;28;20035;-81
2023/03/30 05:39:39;;;;;;;9.77;2.53;;;;;;;-148.88;83.50;74812.53;5061457;28;20020;-81
2023/03/30 05:42:06;;;;;;;4.63;2.35;;;;;;;-148.88;84.89;74828.75;5079728;28;20434;-82
2023/03/30 05:44:31;;;;;;;5.07;2.22;;;;;;;-148.88;85.07;74826.72;5060820;28;20020;-81
2023/03/30 05:46:56;;;;;;;7.22;2.25;;;;;;;-148.88;84.90;74834.84;5061793;28;20021;-82
2023/03/30 05:49:22;;;;;;;6.32;2.25;;;;;;;-148.88;85.90;74834.84;5081098;28;20475;-80
2023/03/30 05:51:47;;;;;;;4.88;2.25;;;;;;;-148.88;86.13;74838.91;5078419;28;20031;-81
2023/03/30 05:54:13;;;;;;;6.97;2.40;;;;;;;-148.88;86.64;74842.97;5080986;28;20364;-81
2023/03/30 05:56:39;;;;;;;4.45;2.20;;;;;;;-148.88;87.77;74851.09;5084004;28;20025;-81
2023/03/30 05:59:04;;;;;;;3.80;2.20;;;;;;;-148.88;88.21;74855.16;5064585;28;20028;-82
2023/03/30 06:01:30;;;;;;;4.55;2.60;;;;;;;-148.88;88.80;74867.34;5083613;28;20027;-82
2023/03/30 06:03:56;;;;;;;7.78;2.40;;;;;;;-148.88;88.78;74863.28;5082976;28;20017;-82
2023/03/30 06:06:22;;;;;;;4.78;2.20;;;;;;;-148.88;89.20;74867.34;5085297;28;20031;-82
2023/03/30 06:08:48;;;;;;;6.50;1.98;;;;;;;-148.88;87.59;74851.09;5085751;28;20077;-82
2023/03/30 06:11:14;;;;;;;6.10;2.30;;;;;;;-148.88;87.08;74830.78;5083482;28;20080;-82
2023/03/30 06:13:40;;;;;;;10.40;2.10;;;;;;;-148.88;86.67;74834.84;5083417;28;20027;-82
2023/03/30 06:16:06;;;;;;;7.00;2.10;;;;;;;-148.88;85.80;74808.47;5067270;28;20024;-82
2023/03/30 06:18:31;;;;;;;6.57;2.22;;;;;;;-148.88;86.19;74818.59;5065392;28;20497;-81
2023/03/30 06:20:56;;;;;;;4.85;1.80;;;;;;;-148.88;85.76;74822.66;5065338;28;20020;-81
2023/03/30 06:23:22;;;;;;;7.80;2.60;;;;;;;-148.88;85.70;74818.59;5082314;28;20036;-82
2023/03/30 06:25:51;;;;;;;4.75;1.83;;;;;;;-148.88;86.36;74826.72;5063914;28;20487;-80
2023/03/30 06:28:18;;;;;;;6.03;2.03;;;;;;;-148.88;85.68;74822.66;5078214;28;20054;-82
2023/03/30 06:30:44;;;;;;;6.18;2.30;;;;;;;-148.88;85.89;74828.75;5064690;28;20111;-81
2023/03/30 06:33:10;;;;;;;5.85;2.08;;;;;;;-148.88;85.98;74830.78;5064537;28;20493;-82
2023/03/30 06:35:35;;;;;;;4.93;2.00;;;;;;;-148.88;86.45;74838.91;5064218;28;20108;-82
2023/03/30 06:38:01;;;;;;;7.40;2.28;;;;;;;-148.88;86.99;74840.94;5064959;28;20418;-82
2023/03/30 06:40:26;;;;;;;7.32;2.10;;;;;;;-148.88;85.83;74830.78;5083106;28;20059;-82
2023/03/30 06:42:51;;;;;;;5.40;2.10;;;;;;;-148.88;86.45;74838.91;5082662;28;20474;-82
2023/03/30 06:45:16;;;;;;;4.80;2.20;;;;;;;-148.88;86.37;74828.75;5082090;28;20024;-82
2023/03/30 06:47:42;;;;;;;4.80;2.10;;;;;;;-148.88;85.84;74822.66;5081813;28;20561;-82
2023/03/30 06:50:08;;;;;;;8.23;2.15;;;;;;;-148.88;86.42;74810.50;5082595;28;20021;-82
2023/03/30 06:52:35;;;;;;;6.20;2.53;;;;;;;-148.88;86.20;74808.47;5083121;28;20029;-82
2023/03/30 06:55:01;;;;;;;7.25;2.17;;;;;;;-148.88;85.52;74792.22;5084271;28;20024;-81
2023/03/30 06:57:26;;;;;;;6.82;2.17;;;;;;;-148.88;85.25;74794.25;5064054;28;20017;-81
2023/03/30 06:59:51;;;;;;;6.72;2.33;;;;;;;-148.88;84.74;74784.09;5082222;28;20024;-81
2023/03/30 07:02:17;;;;;;;3.80;2.00;;;;;;;-148.88;83.97;74759.72;5062547;28;20039;-80
2023/03/30 07:04:45;;;;;;;6.65;2.03;;;;;;;-148.88;84.24;74757.69;5058340;28;20101;-80
2023/03/30 07:07:10;;;;;;;7.32;3.30;;;;;;;-148.88;83.96;74757.69;5059645;28;20028;-80
2023/03/30 07:09:36;;;;;;;5.30;2.60;;;;;;;-148.88;83.95;74749.56;5079493;28;20116;-82
2023/03/30 07:12:01;;;;;;;5.07;2.20;;;;;;;-148.88;83.39;74749.56;5060980;28;20114;-81
2023/03/30 07:14:26;;;;;;;6.70;2.10;;;;;;;-148.88;82.93;74741.44;5064150;28;20031;-81
2023/03/30 07:16:51;;;;;;;7.88;2.10;;;;;;;-148.88;84.45;74741.44;5082503;28;20032;-81
2023/03/30 07:19:17;;;;;;;5.47;2.10;;;;;;;-148.88;84.92;74745.50;5082230;28;20039;-81
2023/03/30 07:21:42;;;;;;;6.30;2.17;;;;;;;-148.88;83.72;74733.31;5080393;28;20048;-81
2023/03/30 07:24:08;;;;;;;7.28;2.10;;;;;;;-148.88;84.51;74741.44;5061975;28;20390;-81
2023/03/30 07:26:33;;;;;;;8.52;2.33;;;;;;;-148.88;83.06;74733.31;5082535;28;20161;-81
2023/03/30 07:28:58;;;;;;;6.93;2.30;;;;;;;-148.88;83.09;74733.31;5081489;28;20047;-81
2023/03/30 07:31:24;;;;;;;5.00;2.22;;;;;;;-148.88;84.26;74741.44;5066634;28;20024;-82
2023/03/30 07:33:50;;;;;;;5.93;2.20;;;;;;;-148.88;84.04;74737.38;5083356;28;20024;-82
2023/03/30 07:36:16;;;;;;;6.43;2.10;;;;;;;-148.88;84.39;74745.50;5064837;28;20031;-82
2023/03/30 07:38:41;;;;;;;8.00;2.40;;;;;;;-148.88;85.40;74755.66;5082850;28;20016;-80
2023/03/30 07:41:08;;;;;;;7.25;2.40;;;;;;;-148.88;86.94;74757.69;5076824;28;20028;-81
2023/03/30 07:43:34;;;;;;;7.70;2.22;;;;;;;-148.88;86.77;74751.59;5077345;28;20020;-81
2023/03/30 07:46:00;;;;;;;7.60;2.63;;;;;;;-148.88;84.66;74733.31;5078052;28;20021;-81
2023/03/30 07:48:25;;;;;;;6.07;2.30;;;;;;;-148.88;85.65;74729.25;5079305;28;20025;-81
2023/03/30 07:51:02;;;;;;;10.50;2.80;;;;;;;-148.88;86.20;74725.19;5081439;28;20030;-82
2023/03/30 07:53:27;;;;;;;5.95;2.20;;;;;;;-148.88;84.81;74710.97;5081649;28;20078;-81
2023/03/30 07:55:54;;;;;;;7.10;2.40;;;;;;;-148.88;84.68;74708.94;5079954;28;20475;-81
2023/03/30 07:58:20;;;;;;;5.75;2.30;;;;;;;-148.88;83.78;74694.75;5081489;28;20136;-81
2023/03/30 08:00:47;;;;;;;7.70;2.55;;;;;;;-148.88;83.29;74688.66;5063794;28;20044;-82
2023/03/30 08:03:13;;;;;;;5.82;2.22;;;;;;;-148.88;83.74;74684.59;5082012;28;20028;-81
2023/03/30 08:05:38;;;;;;;8.30;2.63;;;;;;;-148.88;82.52;74674.44;5078920;28;20028;-81
2023/03/30 08:08:03;;;;;;;6.55;2.45;;;;;;;-148.88;81.84;74660.22;5079512;28;20024;-81
2023/03/30 08:10:29;;;;;;;7.57;2.45;;;;;;;-148.88;82.29;74672.41;5081285;28;20111;-81
2023/03/30 08:12:54;;;;;;;6.65;2.42;;;;;;;-148.88;84.86;74684.59;5061416;28;20048;-81
2023/03/30 08:15:20;;;;;;;7.82;2.40;;;;;;;-148.88;86.35;74698.78;5080594;28;20017;-81
2023/03/30 08:17:45;;;;;;;10.00;2.55;;;;;;;-148.88;86.42;74700.84;5057721;28;20028;-80
2023/03/30 08:20:11;;;;;;;5.38;2.42;;;;;;;-148.88;85.69;74684.59;5058182;28;20070;-81
2023/03/30 08:22:36;;;;;;;7.07;2.53;;;;;;;-148.88;85.55;74676.47;5058500;28;20084;-80
2023/03/30 08:25:01;;;;;;;5.05;2.65;;;;;;;-148.88;84.63;74646.00;5059565;28;20552;-81
2023/03/30 08:27:27;;;;;;;7.10;2.95;;;;;;;-148.88;85.29;74643.97;5077817;28;20025;-81
2023/03/30 08:29:53;;;;;;;5.75;2.47;;;;;;;-148.88;84.14;74648.03;5062065;28;20027;-81
2023/03/30 08:32:18;;;;;;;6.53;2.40;;;;;;;-148.88;85.83;74660.22;5079905;28;20103;-81
2023/03/30 08:34:44;;;;;;;5.32;2.40;;;;;;;-148.88;89.62;74692.72;5079209;28;20466;-81
2023/03/30 08:37:09;;;;;;;8.18;2.50;;;;;;;-148.88;92.21;74737.38;5061395;28;20106;-81
2023/03/30 08:39:35;;;;;;;4.50;2.35;;;;;;;-148.88;95.31;74782.06;5079841;28;20020;-81
2023/03/30 08:42:43;;;;;;;3.97;1.92;;;;;;;-148.88;95.95;74806.44;5079872;28;20371;-80
2023/03/30 08:45:11;;;;;;;5.57;1.92;;;;;;;-148.88;96.92;74816.56;5079158;28;20024;-81
2023/03/30 08:47:41;;;;;;;6.57;2.30;;;;;;;-148.88;97.29;74810.50;5080060;28;20024;-81
2023/03/30 08:50:10;;;;;;;5.65;2.13;;;;;;;-148.88;96.03;74814.53;5079684;28;20501;-81
2023/03/30 08:52:36;;;;;;;8.00;1.90;;;;;;;-148.88;96.60;74806.44;5076923;28;20035;-80
2023/03/30 08:55:03;;;;;;;7.00;2.30;;;;;;;-148.88;96.18;74806.44;5076402;28;20017;-80
2023/03/30 08:57:48;;;;;;;6.43;2.00;;;;;;;-148.88;98.04;74808.47;5058141;28;20036;-80
2023/03/30 09:00:40;;;;;;;7.53;2.50;;;;;;;-148.88;100.00;74855.16;5078673;28;20032;-80
2023/03/30 09:03:30;;;;;;;7.35;2.55;;;;;;;-148.88;100.00;74867.34;5080004;28;20495;-81
2023/03/30 09:06:50;;;;;;;8.55;2.70;;;;;;;-148.88;100.00;74881.56;5081332;28;20021;-80
2023/03/30 09:09:18;;;;;;;9.80;3.20;;;;;;;-148.88;100.00;74910.00;5017879;28;20036;-81
2023/03/30 09:11:46;;;;;;;7.35;3.00;;;;;;;-148.88;100.00;74924.22;5076765;28;20096;-81
2023/03/30 09:14:25;;;;;;;7.68;3.00;;;;;;;-148.88;100.00;74946.53;5080480;28;20024;-81
2023/03/30 09:16:55;;;;;;;6.65;3.25;;;;;;;-148.88;100.00;74950.59;5081169;28;20020;-81
2023/03/30 09:19:31;;;;;;;8.98;3.63;;;;;;;-148.88;100.00;74962.78;5062350;28;20066;-80
2023/03/30 09:22:01;;;;;;;6.47;3.35;;;;;;;-148.88;100.00;74983.09;5079952;28;20112;-81
2023/03/30 09:24:26;;;;;;;9.73;3.50;;;;;;;-148.88;100.00;74993.25;5065980;28;20020;-80
2023/03/30 09:27:13;;;;;;;6.25;2.90;;;;;;;-148.88;100.00;75005.44;5066702;28;20027;-81
2023/03/30 09:29:48;;;;;;;9.63;3.30;;;;;;;-148.88;100.00;75029.81;5080752;28;20029;-79
2023/03/30 09:32:22;;;;;;;8.30;2.63;;;;;;;-148.88;100.00;75033.88;5078561;28;20112;-78
2023/03/30 09:35:00;;;;;;;7.13;2.97;;;;;;;-148.88;100.00;75060.28;5061889;28;20020;-78
2023/03/30 09:37:26;;;;;;;4.97;2.63;;;;;;;-148.88;100.00;75070.44;5080452;28;20021;-82
2023/03/30 09:39:51;;;;;;;5.40;2.38;;;;;;;-148.88;100.00;75092.78;5082023;28;20024;-80
2023/03/30 09:42:42;;;;;;;4.85;2.10;;;;;;;-148.88;100.00;75078.56;5080849;28;20052;-80
2023/03/30 09:45:16;;;;;;;7.80;2.50;;;;;;;-148.88;100.00;75090.72;5080648;28;20058;-80
2023/03/30 09:47:41;;;;;;;7.97;2.53;;;;;;;-148.88;100.00;75098.84;5080391;28;20020;-79
2023/03/30 09:50:15;;;;;;;6.15;2.22;;;;;;;-148.88;100.00;75074.50;5080112;28;20058;-79
2023/03/30 09:52:57;;;;;;;6.72;2.15;;;;;;;-148.88;100.00;75074.50;5080400;28;20527;-78
2023/03/30 09:55:34;;;;;;;5.47;2.30;;;;;;;-148.88;100.00;75070.44;5065529;28;20483;-78
2023/03/30 09:58:32;;;;;;;7.75;2.60;;;;;;;-148.88;100.00;75054.19;5081163;28;20035;-79
2023/03/30 10:01:05;;;;;;;10.82;2.65;;;;;;;-148.88;100.00;75017.63;5051369;28;20040;-80
2023/03/30 10:03:31;;;;;;;7.93;2.53;;;;;;;-148.88;100.00;74985.13;5080841;28;20395;-79
2023/03/30 10:06:03;;;;;;;9.45;2.90;;;;;;;-148.88;100.00;74954.66;5078084;28;20477;-79
2023/03/30 10:08:29;;;;;;;6.88;2.53;;;;;;;-148.88;100.00;74891.72;5077513;28;20021;-80
2023/03/30 10:10:56;;;;;;;7.20;2.40;;;;;;;-148.88;100.00;74865.31;5078189;28;20069;-79
2023/03/30 10:13:35;;;;;;;8.40;2.40;;;;;;;-148.88;100.00;74838.91;5060969;28;20115;-79
2023/03/30 10:16:06;;;;;;;9.90;2.60;;;;;;;-148.88;100.00;74818.59;5061253;28;20020;-80
2023/03/30 10:18:41;;;;;;;7.32;2.40;;;;;;;-148.88;97.34;74834.84;5078656;28;20463;-80
2023/03/30 10:21:13;;;;;;;6.70;2.33;;;;;;;-148.88;99.69;74855.16;5079503;28;20506;-79
2023/03/30 10:23:43;;;;;;;7.00;2.30;;;;;;;-148.88;99.06;74869.38;5079171;28;20052;-79
2023/03/30 10:26:17;;;;;;;7.43;2.30;;;;;;;-148.88;100.00;74873.44;5078986;28;20056;-79
2023/03/30 10:29:03;;;;;;;5.75;2.20;;;;;;;-148.88;100.00;74857.19;5079742;28;20028;-80
2023/03/30 10:31:29;;;;;;;11.73;3.20;;;;;;;-148.88;97.85;74792.22;5061343;28;20020;-79
2023/03/30 10:33:58;;;;;;;10.02;2.90;;;;;;;-148.88;97.08;74790.19;5079404;28;20024;-79
2023/03/30 10:36:29;;;;;;;6.82;2.47;;;;;;;-148.88;94.52;74802.38;5079236;28;20029;-79
2023/03/30 10:39:11;;;;;;;7.63;2.40;;;;;;;-148.88;94.77;74851.09;5079999;28;20498;-80
2023/03/30 10:41:40;;;;;;;8.48;2.42;;;;;;;-148.88;94.87;74824.69;5060585;28;20024;-79
2023/03/30 10:44:17;;;;;;;8.85;2.70;;;;;;;-148.88;93.80;74782.06;5076728;28;20024;-80
2023/03/30 10:46:42;;;;;;;7.53;2.53;;;;;;;-148.88;92.53;74798.31;5060189;28;20456;-80
2023/03/30 10:49:14;;;;;;;7.32;2.53;;;;;;;-148.88;92.36;74798.31;5078611;28;20475;-80
2023/03/30 10:51:47;;;;;;;9.68;2.75;;;;;;;-148.88;91.48;74778.00;5078382;28;20067;-80
2023/03/30 10:54:31;;;;;;;10.93;2.63;;;;;;;-148.88;92.02;74778.00;5078838;28;20044;-79
2023/03/30 10:57:01;;;;;;;;;;;;;;;-148.88;90.55;74751.59;5079272;28;20040;-80
2023/03/30 11:00:08;;;;;;;8.02;2.17;;;;;;;-148.88;88.70;74713.00;5078780;28;20272;-80
2023/03/30 11:02:59;;;;;;;7.85;2.35;;;;;;;-148.88;88.14;74692.72;5078740;28;20025;-79
2023/03/30 11:05:30;;;;;;;7.03;2.13;;;;;;;-148.88;87.31;74684.59;5078768;28;20099;-79
2023/03/30 11:08:05;;;;;;;7.65;2.40;;;;;;;-148.88;86.08;74721.13;5078413;28;20024;-80
2023/03/30 11:10:38;;;;;;;6.78;2.30;;;;;;;-148.88;86.67;74755.66;5078554;28;20028;-80
2023/03/30 11:13:12;;;;;;;8.82;2.15;;;;;;;-148.88;84.83;74790.19;5078761;28;20113;-80
2023/03/30 11:15:50;;;;;;;4.30;1.80;;;;;;;-148.88;86.86;74792.22;5078884;28;20035;-80
2023/03/30 11:18:20;;;;;;;4.55;2.10;;;;;;;-148.88;86.96;74794.25;5077420;28;20395;-79
2023/03/30 11:21:20;;;;;;;6.28;2.10;;;;;;;-148.88;88.92;74778.00;5058095;28;20027;-79
2023/03/30 11:23:54;;;;;;;8.90;2.33;;;;;;;-148.88;85.51;74790.19;5058394;28;20024;-79
2023/03/30 11:26:23;;;;;;;;;;;;;;;-148.88;84.45;74782.06;5059926;28;20025;-79
2023/03/30 11:29:17;;;;;;;8.02;1.90;;;;;;;-148.88;81.27;74702.84;5077816;28;19915;-81
2023/03/30 11:32:04;;;;;;;5.47;1.80;;;;;;;-148.88;79.34;74690.69;5078908;28;20021;-81
2023/03/30 11:34:52;;;;;;;7.07;1.70;;;;;;;-148.88;80.60;74708.94;5082201;28;20490;-80